Time;durP1;ratioP1;P1;durP2;ratioP2;P2;SDS_P1;SDS_P2;PMS_P1;PMS_P2;Temp;Humidity;BMP_temperature;BMP_pressure;BME280_temperature;BME280_humidity;BME280_pressure;Samples;Min_cycle;Max_cycle;Signal;HPM_P1;HPM_P2
2023/08/04 00:00:36;;;;;;;3.03;1.17;;;20.10;99.90;;;;;;4796161;29;20054;-79
2023/08/04 00:03:03;;;;;;;3.50;1.38;;;20.10;99.90;;;;;;4799083;29;20109;-79
2023/08/04 00:05:31;;;;;;;4.40;1.10;;;20.10;99.90;;;;;;4801934;29;20046;-80
2023/08/04 00:07:58;;;;;;;5.78;1.88;;;20.00;99.90;;;;;;4801665;29;20457;-80
2023/08/04 00:10:26;;;;;;;3.70;1.52;;;20.00;99.90;;;;;;4797450;29;20049;-79
2023/08/04 00:12:53;;;;;;;2.92;1.15;;;20.10;99.90;;;;;;4796664;29;20430;-77
2023/08/04 00:15:21;;;;;;;3.95;1.25;;;19.70;99.90;;;;;;4784347;29;20054;-78
2023/08/04 00:17:48;;;;;;;2.90;1.38;;;19.70;99.90;;;;;;4817050;29;20054;-79
2023/08/04 00:20:15;;;;;;;4.30;1.85;;;19.50;99.90;;;;;;4821907;29;20038;-79
2023/08/04 00:22:43;;;;;;;2.47;1.27;;;19.60;99.90;;;;;;4811861;29;20046;-80
2023/08/04 00:25:11;;;;;;;4.72;1.20;;;19.80;99.90;;;;;;4823344;29;20072;-79
2023/08/04 00:27:39;;;;;;;3.17;0.98;;;19.90;99.90;;;;;;4760176;29;20105;-80
2023/08/04 00:30:06;;;;;;;2.90;1.40;;;19.90;99.90;;;;;;4755055;29;20185;-80
2023/08/04 00:32:34;;;;;;;6.07;1.70;;;19.90;99.90;;;;;;4768646;29;20063;-79
2023/08/04 00:35:03;;;;;;;2.55;1.25;;;19.90;99.90;;;;;;4748046;29;20063;-79
2023/08/04 00:37:33;;;;;;;4.30;1.65;;;19.70;99.90;;;;;;4754242;29;22496;-78
2023/08/04 00:40:00;;;;;;;6.43;1.38;;;19.80;99.90;;;;;;4737769;29;20490;-79
2023/08/04 00:42:27;;;;;;;3.15;1.70;;;19.70;99.90;;;;;;4761637;29;20498;-79
2023/08/04 00:44:54;;;;;;;3.50;1.50;;;19.80;99.90;;;;;;4760027;29;20591;-78
2023/08/04 00:47:21;;;;;;;2.25;1.40;;;19.90;99.90;;;;;;4757210;29;20054;-78
2023/08/04 00:49:49;;;;;;;4.30;1.25;;;19.90;99.90;;;;;;4755635;29;20059;-79
2023/08/04 00:52:17;;;;;;;3.35;1.55;;;20.00;99.90;;;;;;4753548;29;20051;-78
2023/08/04 00:54:46;;;;;;;2.25;1.20;;;20.00;99.90;;;;;;4760893;29;20058;-78
2023/08/04 00:57:13;;;;;;;7.45;1.95;;;20.00;99.90;;;;;;4756164;29;20050;-78
2023/08/04 00:59:44;;;;;;;5.10;1.92;;;20.20;99.90;;;;;;4770100;29;20516;-78
2023/08/04 01:02:11;;;;;;;3.97;1.60;;;19.90;99.90;;;;;;4801674;29;20061;-78
2023/08/04 01:04:38;;;;;;;4.78;1.80;;;19.80;99.90;;;;;;4797276;29;20573;-78
2023/08/04 01:07:17;;;;;;;3.58;1.58;;;19.90;99.90;;;;;;4787715;29;22670;-78
2023/08/04 01:10:11;;;;;;;4.35;2.35;;;20.00;99.90;;;;;;4803620;29;20054;-79
2023/08/04 01:12:59;;;;;;;4.03;1.50;;;20.00;99.90;;;;;;4805107;29;20117;-78
2023/08/04 01:15:27;;;;;;;4.95;1.73;;;20.00;99.90;;;;;;4798297;29;20184;-79
2023/08/04 01:17:55;;;;;;;3.90;1.83;;;19.90;99.90;;;;;;4817935;29;20064;-79
2023/08/04 01:20:24;;;;;;;3.10;2.00;;;19.80;99.90;;;;;;4788493;29;20814;-79
2023/08/04 01:22:51;;;;;;;3.75;1.40;;;19.70;99.90;;;;;;4812241;29;20439;-79
2023/08/04 01:25:28;;;;;;;3.58;1.52;;;19.60;99.90;;;;;;4825411;29;20038;-79
2023/08/04 01:28:01;;;;;;;3.90;1.83;;;19.60;99.90;;;;;;4807125;29;22248;-79
2023/08/04 01:30:29;;;;;;;2.90;1.30;;;19.70;99.90;;;;;;4815875;29;20156;-79
2023/08/04 01:32:57;;;;;;;3.00;0.70;;;19.70;99.90;;;;;;4806837;29;20799;-79
2023/08/04 01:35:25;;;;;;;4.30;1.13;;;19.50;99.90;;;;;;4817889;29;20148;-79
2023/08/04 01:37:52;;;;;;;2.67;1.13;;;19.60;99.90;;;;;;4809912;29;20057;-79
2023/08/04 01:40:20;;;;;;;3.08;1.10;;;19.10;99.90;;;;;;4808267;29;20407;-78
2023/08/04 01:42:47;;;;;;;1.70;0.80;;;19.10;99.90;;;;;;4817075;29;20201;-79
2023/08/04 01:45:14;;;;;;;2.40;1.20;;;19.20;99.90;;;;;;4813667;29;20402;-79
2023/08/04 01:47:41;;;;;;;3.45;1.10;;;19.40;99.90;;;;;;4811646;29;20053;-79
2023/08/04 01:50:09;;;;;;;1.88;0.90;;;19.30;99.90;;;;;;4808133;29;20151;-79
2023/08/04 01:52:37;;;;;;;2.35;0.80;;;19.40;99.90;;;;;;4819620;29;20201;-79
2023/08/04 01:55:05;;;;;;;3.17;1.00;;;19.50;99.90;;;;;;4820293;29;20446;-79
2023/08/04 01:57:32;;;;;;;5.30;1.88;;;19.50;99.90;;;;;;4813151;29;20057;-78
2023/08/04 01:59:59;;;;;;;2.13;0.73;;;19.50;99.90;;;;;;4825902;29;20620;-76
2023/08/04 02:02:28;;;;;;;2.53;1.15;;;19.40;99.90;;;;;;4816697;29;20069;-75
2023/08/04 02:04:57;;;;;;;4.22;0.85;;;19.50;99.90;;;;;;4819337;29;22244;-75
2023/08/04 02:07:24;;;;;;;5.00;1.33;;;19.50;99.90;;;;;;4813796;29;20700;-75
2023/08/04 02:09:52;;;;;;;3.67;1.40;;;19.40;99.90;;;;;;4815365;29;20058;-74
2023/08/04 02:12:20;;;;;;;6.40;1.35;;;19.40;99.90;;;;;;4814393;29;20075;-75
2023/08/04 02:14:47;;;;;;;4.88;1.35;;;19.40;99.90;;;;;;4804027;29;20058;-75
2023/08/04 02:17:16;;;;;;;4.93;1.25;;;19.40;99.90;;;;;;4817808;29;20077;-75
2023/08/04 02:19:43;;;;;;;2.05;0.88;;;19.30;99.90;;;;;;4805115;29;20359;-75
2023/08/04 02:22:10;;;;;;;4.32;1.15;;;19.30;99.90;;;;;;4805850;29;20148;-74
2023/08/04 02:24:37;;;;;;;2.92;1.00;;;19.30;99.90;;;;;;4826744;29;20184;-74
2023/08/04 02:27:05;;;;;;;3.45;1.13;;;19.40;99.90;;;;;;4820905;29;20059;-74
2023/08/04 02:29:32;;;;;;;3.45;1.27;;;19.40;99.90;;;;;;4831727;29;20042;-76
2023/08/04 02:31:59;;;;;;;4.05;1.40;;;19.40;99.90;;;;;;4791610;29;20061;-75
2023/08/04 02:34:26;;;;;;;3.38;1.75;;;19.40;99.90;;;;;;4806562;29;20633;-75
2023/08/04 02:36:55;;;;;;;5.13;1.05;;;19.50;99.90;;;;;;4821191;29;20042;-75
2023/08/04 02:39:22;;;;;;;3.05;0.95;;;19.50;99.90;;;;;;4832231;29;20037;-74
2023/08/04 02:41:49;;;;;;;2.72;1.02;;;19.50;99.90;;;;;;4805985;29;20071;-75
2023/08/04 02:44:16;;;;;;;3.67;1.10;;;19.60;99.90;;;;;;4805454;29;20465;-75
2023/08/04 02:46:45;;;;;;;6.28;1.10;;;19.50;99.90;;;;;;4802213;29;20281;-74
2023/08/04 02:49:12;;;;;;;3.95;1.75;;;19.50;99.90;;;;;;4817616;29;20057;-75
2023/08/04 02:51:39;;;;;;;4.30;1.45;;;19.50;99.90;;;;;;4809146;29;20442;-74
2023/08/04 02:54:09;;;;;;;5.15;1.30;;;19.50;99.90;;;;;;4813808;29;20081;-75
2023/08/04 02:56:36;;;;;;;3.13;1.00;;;19.50;99.90;;;;;;4818203;29;20140;-75
2023/08/04 02:59:03;;;;;;;3.50;1.23;;;19.60;99.90;;;;;;4817443;29;20046;-75
2023/08/04 03:01:30;;;;;;;3.50;1.50;;;19.60;99.90;;;;;;4825326;29;20187;-75
2023/08/04 03:03:57;;;;;;;3.30;1.13;;;19.60;99.90;;;;;;4804074;29;20053;-75
2023/08/04 03:06:24;;;;;;;3.28;1.40;;;19.60;99.90;;;;;;4821173;29;20053;-75
2023/08/04 03:08:52;;;;;;;4.25;1.60;;;19.70;99.90;;;;;;4806845;29;20049;-75
2023/08/04 03:11:19;;;;;;;5.55;1.65;;;19.70;99.90;;;;;;4821186;29;20058;-75
2023/08/04 03:13:46;;;;;;;3.08;1.38;;;19.60;99.90;;;;;;4817951;29;20128;-75
2023/08/04 03:16:13;;;;;;;4.13;1.35;;;19.60;99.90;;;;;;4819720;29;20106;-76
2023/08/04 03:18:40;;;;;;;4.95;1.75;;;19.60;99.90;;;;;;4820838;29;20049;-76
2023/08/04 03:21:07;;;;;;;3.40;2.10;;;19.50;99.90;;;;;;4802290;29;20046;-76
2023/08/04 03:23:34;;;;;;;5.53;1.83;;;19.50;99.90;;;;;;4818803;29;20065;-76
2023/08/04 03:26:01;;;;;;;5.13;1.90;;;19.60;99.90;;;;;;4797578;29;20075;-77
2023/08/04 03:28:29;;;;;;;3.67;2.38;;;19.60;99.90;;;;;;4818070;29;20050;-77
2023/08/04 03:30:56;;;;;;;6.05;2.40;;;19.50;99.90;;;;;;4832632;29;20068;-77
2023/08/04 03:33:23;;;;;;;6.03;2.25;;;19.40;99.90;;;;;;4816932;29;20144;-74
2023/08/04 03:35:50;;;;;;;5.53;2.53;;;19.30;99.90;;;;;;4815570;29;20041;-78
2023/08/04 03:38:18;;;;;;;4.40;2.20;;;19.10;99.90;;;;;;4817207;29;20042;-75
2023/08/04 03:40:45;;;;;;;3.50;2.40;;;19.20;99.90;;;;;;4818085;29;20053;-77
2023/08/04 03:43:12;;;;;;;4.07;2.10;;;19.20;99.90;;;;;;4819021;29;20093;-78
2023/08/04 03:45:39;;;;;;;11.20;2.67;;;19.30;99.90;;;;;;4820590;29;20069;-77
2023/08/04 03:48:06;;;;;;;4.05;1.73;;;19.40;99.90;;;;;;4821895;29;20050;-77
2023/08/04 03:50:33;;;;;;;2.85;1.25;;;19.40;99.90;;;;;;4810163;29;20061;-79
2023/08/04 03:53:01;;;;;;;3.00;1.15;;;19.30;99.90;;;;;;4807634;29;20054;-78
2023/08/04 03:55:28;;;;;;;2.78;1.52;;;19.30;99.90;;;;;;4800099;29;20193;-78
2023/08/04 03:57:55;;;;;;;5.13;1.60;;;19.20;99.90;;;;;;4815712;29;20061;-76
2023/08/04 04:00:22;;;;;;;2.85;1.52;;;19.20;99.90;;;;;;4817200;29;20090;-77
2023/08/04 04:02:50;;;;;;;2.70;1.50;;;19.30;99.90;;;;;;4802712;29;20050;-78
2023/08/04 04:05:17;;;;;;;2.70;1.20;;;19.10;99.90;;;;;;4816352;29;20415;-78
2023/08/04 04:07:44;;;;;;;1.90;1.17;;;19.00;99.90;;;;;;4792163;29;20056;-80
2023/08/04 04:10:12;;;;;;;3.67;1.50;;;18.90;99.90;;;;;;4813519;29;20946;-80
2023/08/04 04:12:39;;;;;;;3.85;1.55;;;18.90;99.90;;;;;;4805677;29;20058;-78
2023/08/04 04:15:07;;;;;;;5.07;2.00;;;18.90;99.90;;;;;;4821780;29;20137;-80
2023/08/04 04:17:35;;;;;;;2.38;1.40;;;18.70;99.90;;;;;;4813522;29;22295;-79
2023/08/04 04:20:03;;;;;;;6.35;1.75;;;18.60;99.90;;;;;;4822514;29;20431;-77
2023/08/04 04:22:30;;;;;;;2.95;1.67;;;18.60;99.90;;;;;;4797649;29;20092;-75
2023/08/04 04:24:57;;;;;;;3.03;1.15;;;18.60;99.90;;;;;;4805543;29;20046;-78
2023/08/04 04:27:24;;;;;;;2.60;1.27;;;18.50;99.90;;;;;;4821058;29;20058;-79
2023/08/04 04:29:52;;;;;;;2.45;1.23;;;18.60;99.90;;;;;;4813045;29;20256;-78
2023/08/04 04:32:19;;;;;;;2.78;1.40;;;18.80;99.90;;;;;;4826779;29;20117;-80
2023/08/04 04:34:46;;;;;;;6.75;2.10;;;18.80;99.90;;;;;;4835071;29;20089;-79
2023/08/04 04:37:13;;;;;;;3.67;2.03;;;18.70;99.90;;;;;;4815149;29;20052;-76
2023/08/04 04:39:40;;;;;;;3.47;1.48;;;18.80;99.90;;;;;;4845386;29;20634;-77
2023/08/04 04:42:07;;;;;;;4.80;1.50;;;18.80;99.90;;;;;;4808089;29;20065;-78
2023/08/04 04:44:34;;;;;;;3.47;1.70;;;18.80;99.90;;;;;;4833290;29;20186;-78
2023/08/04 04:47:02;;;;;;;6.72;2.20;;;19.00;99.90;;;;;;4804255;29;20478;-77
2023/08/04 04:49:29;;;;;;;5.68;1.75;;;18.80;99.90;;;;;;4817933;29;22315;-77
2023/08/04 04:51:56;;;;;;;2.72;1.40;;;18.90;99.90;;;;;;4817398;29;20133;-78
2023/08/04 04:54:23;;;;;;;4.00;1.75;;;18.90;99.90;;;;;;4821820;29;20048;-78
2023/08/04 04:56:51;;;;;;;3.80;1.60;;;18.90;99.90;;;;;;4814611;29;20052;-78
2023/08/04 04:59:18;;;;;;;2.13;1.45;;;18.90;99.90;;;;;;4831324;29;20052;-77
2023/08/04 05:01:45;;;;;;;3.45;1.40;;;19.20;99.90;;;;;;4823525;29;20053;-78
2023/08/04 05:04:13;;;;;;;4.78;1.67;;;19.40;99.90;;;;;;4824132;29;20053;-79
2023/08/04 05:06:40;;;;;;;3.47;1.55;;;19.40;99.90;;;;;;4819395;29;20184;-78
2023/08/04 05:09:08;;;;;;;3.67;1.90;;;19.30;99.90;;;;;;4812631;29;20049;-79
2023/08/04 05:11:35;;;;;;;2.63;1.35;;;19.20;99.90;;;;;;4803532;29;20101;-78
2023/08/04 05:14:03;;;;;;;2.58;1.20;;;19.30;99.90;;;;;;4811864;29;20189;-79
2023/08/04 05:16:31;;;;;;;4.90;1.60;;;19.20;99.90;;;;;;4810343;29;20072;-80
2023/08/04 05:18:59;;;;;;;3.40;1.63;;;19.30;99.90;;;;;;4811836;29;20100;-78
2023/08/04 05:21:26;;;;;;;3.75;1.17;;;19.30;99.90;;;;;;4803013;29;20046;-80
2023/08/04 05:23:54;;;;;;;2.63;1.17;;;19.30;99.90;;;;;;4819430;29;20050;-78
2023/08/04 05:26:24;;;;;;;2.75;1.30;;;19.50;99.90;;;;;;4820666;29;20033;-80
2023/08/04 05:28:51;;;;;;;2.70;0.90;;;19.20;99.90;;;;;;4812241;29;20065;-81
2023/08/04 05:31:18;;;;;;;2.03;0.77;;;19.20;99.90;;;;;;4821393;29;20045;-80
2023/08/04 05:33:46;;;;;;;3.08;1.20;;;19.20;99.90;;;;;;4819658;29;20170;-78
2023/08/04 05:36:13;;;;;;;1.95;0.90;;;19.20;99.90;;;;;;4815989;29;20060;-80
2023/08/04 05:38:40;;;;;;;4.13;1.23;;;19.20;99.90;;;;;;4797712;29;20814;-80
2023/08/04 05:41:08;;;;;;;2.90;1.13;;;19.20;99.90;;;;;;4808436;29;20668;-81
2023/08/04 05:43:38;;;;;;;2.10;1.00;;;19.30;99.90;;;;;;4810644;29;20608;-81
2023/08/04 05:46:12;;;;;;;3.13;1.83;;;19.20;99.90;;;;;;4811051;29;22322;-80
2023/08/04 05:48:40;;;;;;;2.05;1.20;;;19.40;99.90;;;;;;4807452;29;20057;-80
2023/08/04 05:51:10;;;;;;;2.22;1.00;;;19.40;99.90;;;;;;4824074;29;20885;-79
2023/08/04 05:53:38;;;;;;;1.85;1.00;;;19.50;99.90;;;;;;4821900;29;20064;-80
2023/08/04 05:56:05;;;;;;;1.95;0.80;;;19.40;99.90;;;;;;4825023;29;20054;-80
2023/08/04 05:58:32;;;;;;;2.35;1.10;;;19.40;99.90;;;;;;4813536;29;20058;-81
2023/08/04 06:01:02;;;;;;;2.28;1.00;;;19.40;99.90;;;;;;4809224;29;20422;-81
2023/08/04 06:03:30;;;;;;;1.73;1.00;;;19.40;99.90;;;;;;4805573;29;20846;-80
2023/08/04 06:05:57;;;;;;;2.25;0.85;;;19.40;99.90;;;;;;4821289;29;20053;-81
2023/08/04 06:08:24;;;;;;;4.43;1.15;;;19.50;99.90;;;;;;4813302;29;20057;-79
2023/08/04 06:10:51;;;;;;;2.25;1.00;;;19.50;99.90;;;;;;4825945;29;20050;-80
2023/08/04 06:13:22;;;;;;;3.08;0.90;;;19.60;99.90;;;;;;4819401;29;20065;-80
2023/08/04 06:15:52;;;;;;;3.67;0.98;;;19.70;99.90;;;;;;4819001;29;20593;-79
2023/08/04 06:18:22;;;;;;;4.35;1.10;;;19.70;99.90;;;;;;4820787;29;20553;-80
2023/08/04 06:20:53;;;;;;;3.10;1.10;;;19.60;99.90;;;;;;4832127;29;20445;-81
2023/08/04 06:23:21;;;;;;;4.40;0.93;;;19.80;99.90;;;;;;4809662;29;20384;-81
2023/08/04 06:25:48;;;;;;;3.95;0.73;;;19.90;99.90;;;;;;4820222;29;20053;-80
2023/08/04 06:28:16;;;;;;;2.38;0.88;;;20.20;99.90;;;;;;4802021;29;20061;-79
2023/08/04 06:30:43;;;;;;;1.90;0.73;;;20.50;99.90;;;;;;4829086;29;20057;-79
2023/08/04 06:33:13;;;;;;;2.42;0.95;;;21.20;99.90;;;;;;4807413;29;20065;-79
2023/08/04 06:35:41;;;;;;;2.35;0.98;;;20.60;99.90;;;;;;4805793;29;20068;-78
2023/08/04 06:38:09;;;;;;;3.42;1.30;;;20.60;99.90;;;;;;4814213;29;20202;-77
2023/08/04 06:40:39;;;;;;;2.28;0.65;;;20.80;99.90;;;;;;4805488;29;20090;-78
2023/08/04 06:43:07;;;;;;;2.92;1.00;;;20.90;99.90;;;;;;4803841;29;20053;-78
2023/08/04 06:45:34;;;;;;;5.72;0.93;;;20.80;99.90;;;;;;4805090;29;20053;-81
2023/08/04 06:48:02;;;;;;;2.38;1.20;;;20.90;99.90;;;;;;4805351;29;20829;-78
2023/08/04 06:50:29;;;;;;;1.67;0.88;;;21.10;99.90;;;;;;4816685;29;20041;-78
2023/08/04 06:52:56;;;;;;;1.88;0.98;;;21.00;99.90;;;;;;4804851;29;20064;-79
2023/08/04 06:55:23;;;;;;;1.80;0.70;;;20.80;99.90;;;;;;4818213;29;20514;-78
2023/08/04 06:57:54;;;;;;;3.05;1.10;;;20.80;99.90;;;;;;4831852;29;20042;-79
2023/08/04 07:00:21;;;;;;;1.85;0.80;;;20.80;99.90;;;;;;4830270;29;20510;-79
2023/08/04 07:02:49;;;;;;;3.85;1.13;;;20.90;99.90;;;;;;4808125;29;20077;-80
2023/08/04 07:05:16;;;;;;;1.70;0.63;;;20.80;99.90;;;;;;4815382;29;20053;-80
2023/08/04 07:07:45;;;;;;;2.50;0.70;;;20.90;99.90;;;;;;4801946;29;20569;-79
2023/08/04 07:10:13;;;;;;;3.60;1.00;;;20.90;99.90;;;;;;4806992;29;20754;-80
2023/08/04 07:12:40;;;;;;;3.28;1.00;;;21.40;99.90;;;;;;4831224;29;20049;-80
2023/08/04 07:15:08;;;;;;;1.67;0.80;;;21.80;99.90;;;;;;4805972;29;20068;-79
2023/08/04 07:17:35;;;;;;;3.00;0.93;;;21.70;99.90;;;;;;4813513;29;20201;-81
2023/08/04 07:20:05;;;;;;;3.75;1.35;;;21.80;99.90;;;;;;4817686;29;20061;-79
2023/08/04 07:22:32;;;;;;;3.72;0.88;;;22.00;99.90;;;;;;4800157;29;20050;-80
2023/08/04 07:24:59;;;;;;;1.40;0.60;;;21.90;99.90;;;;;;4822201;29;20050;-81
2023/08/04 07:27:36;;;;;;;2.45;0.93;;;21.90;99.90;;;;;;4738571;30;20056;-80
2023/08/04 07:30:04;;;;;;;1.60;0.90;;;21.90;99.90;;;;;;4751646;30;20209;-80
2023/08/04 07:32:32;;;;;;;2.85;1.00;;;21.90;99.90;;;;;;4749573;30;20042;-81
2023/08/04 07:35:01;;;;;;;2.25;0.80;;;22.50;99.90;;;;;;4746869;30;20087;-81
2023/08/04 07:37:36;;;;;;;1.83;0.82;;;22.80;99.90;;;;;;4749401;30;20070;-82
2023/08/04 07:40:03;;;;;;;2.38;0.90;;;22.70;99.90;;;;;;4751548;30;20059;-80
2023/08/04 07:42:31;;;;;;;2.10;0.80;;;22.60;99.90;;;;;;4725384;30;20051;-82
2023/08/04 07:45:22;;;;;;;2.97;0.93;;;22.60;99.90;;;;;;4719762;30;20060;-81
2023/08/04 07:47:51;;;;;;;2.35;0.70;;;22.60;99.90;;;;;;4803342;29;20047;-81
2023/08/04 07:50:18;;;;;;;2.03;0.55;;;22.40;99.90;;;;;;4804061;29;20046;-83
2023/08/04 07:52:50;;;;;;;2.63;0.80;;;22.40;99.90;;;;;;4808818;29;20550;-83
2023/08/04 07:55:18;;;;;;;1.92;0.93;;;22.60;99.90;;;;;;4823720;29;20419;-83
2023/08/04 08:04:16;;;;;;;1.52;0.90;;;23.00;99.90;;;;;;4835264;27;20050;-81
2023/08/04 08:06:43;;;;;;;1.98;0.93;;;23.10;99.90;;;;;;4829396;29;20046;-80
2023/08/04 08:09:19;;;;;;;1.98;1.00;;;23.10;99.90;;;;;;4795245;29;20065;-82
2023/08/04 08:12:14;;;;;;;1.48;0.60;;;23.30;99.90;;;;;;4781669;29;20058;-83
2023/08/04 08:14:41;;;;;;;1.33;0.77;;;23.40;99.90;;;;;;4792509;29;20176;-81
2023/08/04 08:17:09;;;;;;;2.95;0.98;;;23.30;99.90;;;;;;4786417;29;20162;-82
2023/08/04 08:19:36;;;;;;;2.00;0.80;;;23.00;99.90;;;;;;4778198;29;20576;-82
2023/08/04 08:23:07;;;;;;;1.67;0.65;;;23.30;99.90;;;;;;4774593;29;20071;-83
2023/08/04 08:25:36;;;;;;;3.45;1.10;;;23.40;99.90;;;;;;4750956;30;20063;-82
2023/08/04 08:28:03;;;;;;;1.98;0.63;;;23.60;99.90;;;;;;4766897;29;20810;-82
2023/08/04 08:30:31;;;;;;;1.60;0.57;;;23.80;99.90;;;;;;4775891;29;20103;-82
2023/08/04 08:32:58;;;;;;;2.33;0.70;;;24.00;99.90;;;;;;4793632;29;20069;-82
2023/08/04 08:35:26;;;;;;;2.72;1.08;;;23.90;99.90;;;;;;4791058;29;20126;-84
2023/08/04 08:37:53;;;;;;;2.72;0.90;;;23.90;99.90;;;;;;4805949;29;20386;-82
2023/08/04 08:40:23;;;;;;;1.40;0.77;;;23.90;99.90;;;;;;4792532;29;20413;-81
2023/08/04 08:42:52;;;;;;;2.17;0.60;;;24.00;99.90;;;;;;4821234;29;20097;-80
2023/08/04 08:45:30;;;;;;;2.25;0.90;;;24.00;99.90;;;;;;4807389;29;20081;-83
2023/08/04 08:47:57;;;;;;;3.58;0.80;;;23.90;99.90;;;;;;4815702;29;20145;-82
2023/08/04 08:50:26;;;;;;;2.15;0.82;;;23.80;99.90;;;;;;4807263;29;20062;-82
2023/08/04 08:53:11;;;;;;;1.65;0.82;;;24.00;99.90;;;;;;4808262;29;20091;-81
2023/08/04 08:55:39;;;;;;;2.20;1.02;;;24.10;99.90;;;;;;4817333;29;20060;-82
2023/08/04 08:58:08;;;;;;;1.38;0.60;;;24.10;99.90;;;;;;4812228;29;20045;-82
2023/08/04 09:00:35;;;;;;;2.40;0.88;;;24.20;99.90;;;;;;4823284;29;20076;-81
2023/08/04 09:03:04;;;;;;;3.13;0.70;;;24.20;99.90;;;;;;4832188;29;20488;-81
2023/08/04 09:05:32;;;;;;;1.77;0.90;;;24.50;99.90;;;;;;4834366;29;20056;-82
2023/08/04 09:08:00;;;;;;;2.03;0.50;;;24.60;99.90;;;;;;4825901;29;20057;-81
2023/08/04 09:10:27;;;;;;;1.30;0.80;;;24.60;99.90;;;;;;4812557;29;20067;-82
2023/08/04 09:12:56;;;;;;;2.22;0.93;;;24.70;99.90;;;;;;4826773;29;20136;-82
2023/08/04 09:15:51;;;;;;;3.33;1.00;;;24.80;99.90;;;;;;4816615;29;20432;-82
2023/08/04 09:18:29;;;;;;;2.55;1.00;;;24.90;99.90;;;;;;4814472;29;20049;-81
2023/08/04 09:21:08;;;;;;;2.83;1.10;;;24.90;99.90;;;;;;4831518;29;20049;-83
2023/08/04 09:23:37;;;;;;;1.77;1.02;;;24.90;99.90;;;;;;4820059;29;20508;-82
2023/08/04 09:26:04;;;;;;;1.70;1.00;;;24.90;99.90;;;;;;4861001;29;20069;-83
2023/08/04 09:28:31;;;;;;;2.80;1.25;;;24.90;99.90;;;;;;4819651;29;20432;-84
2023/08/04 09:31:10;;;;;;;2.50;0.85;;;24.90;99.90;;;;;;4826397;29;20539;-82
2023/08/04 09:33:43;;;;;;;2.72;1.60;;;25.00;99.90;;;;;;4838929;29;20164;-83
2023/08/04 09:36:15;;;;;;;2.80;1.30;;;25.10;99.90;;;;;;4829502;29;20168;-84
2023/08/04 09:38:44;;;;;;;3.28;1.08;;;25.00;99.90;;;;;;4831839;29;23000;-82
2023/08/04 09:41:13;;;;;;;1.95;1.08;;;25.20;99.90;;;;;;4816062;29;20690;-83
2023/08/04 09:43:44;;;;;;;2.42;1.10;;;25.30;99.90;;;;;;4831377;29;20122;-84
2023/08/04 09:46:11;;;;;;;2.70;0.90;;;25.30;99.90;;;;;;4816962;29;20045;-84
2023/08/04 09:48:39;;;;;;;2.17;1.10;;;25.20;99.80;;;;;;4820210;29;20061;-83
2023/08/04 09:51:08;;;;;;;1.38;0.80;;;25.20;99.90;;;;;;4830453;29;20053;-82
2023/08/04 09:53:47;;;;;;;4.30;1.10;;;25.40;99.90;;;;;;4842606;29;20358;-82
2023/08/04 09:56:17;;;;;;;3.20;1.10;;;25.50;99.90;;;;;;4826093;29;20429;-85
2023/08/04 09:58:46;;;;;;;2.28;1.33;;;25.60;99.90;;;;;;4817603;29;20061;-77
2023/08/04 10:01:14;;;;;;;3.15;1.25;;;25.60;99.90;;;;;;4844603;29;20049;-84
2023/08/04 10:03:43;;;;;;;2.28;0.93;;;25.60;99.90;;;;;;4817071;29;20806;-85
2023/08/04 10:06:11;;;;;;;3.47;1.10;;;25.60;99.90;;;;;;4844258;29;20403;-84
2023/08/04 10:08:40;;;;;;;2.88;1.67;;;25.50;99.90;;;;;;4821637;29;20152;-82
2023/08/04 10:11:08;;;;;;;2.05;1.05;;;25.50;99.70;;;;;;4827562;29;20068;-82
2023/08/04 10:13:42;;;;;;;3.53;1.23;;;25.60;99.90;;;;;;4818729;29;20122;-84
2023/08/04 10:16:15;;;;;;;2.78;0.90;;;25.60;98.70;;;;;;4829262;29;20651;-85
2023/08/04 10:18:53;;;;;;;2.88;1.08;;;25.70;99.90;;;;;;4814015;29;20109;-84
2023/08/04 10:21:31;;;;;;;2.13;1.30;;;26.00;99.90;;;;;;4827260;29;20054;-85
2023/08/04 10:24:02;;;;;;;2.22;1.20;;;25.90;99.80;;;;;;4820206;29;20109;-85
2023/08/04 10:26:33;;;;;;;1.60;0.90;;;25.80;99.90;;;;;;4827408;29;20045;-82
2023/08/04 10:29:03;;;;;;;2.25;1.40;;;25.70;99.90;;;;;;4845361;29;20105;-80
2023/08/04 10:31:56;;;;;;;4.00;1.25;;;25.90;99.90;;;;;;4838624;29;20060;-83
2023/08/04 10:34:31;;;;;;;1.60;1.08;;;26.10;99.90;;;;;;4840043;29;20462;-83
2023/08/04 10:37:09;;;;;;;2.30;0.95;;;26.20;99.70;;;;;;4830210;29;20100;-85
2023/08/04 10:39:48;;;;;;;3.00;1.00;;;26.40;99.10;;;;;;4815683;29;20087;-86
2023/08/04 10:42:22;;;;;;;2.60;1.08;;;26.30;98.60;;;;;;4831370;29;20065;-83
2023/08/04 10:45:03;;;;;;;2.40;1.02;;;26.40;98.00;;;;;;4821045;29;20045;-85
2023/08/04 10:47:47;;;;;;;2.35;1.10;;;26.50;97.30;;;;;;4830580;29;20046;-82
2023/08/04 10:50:36;;;;;;;2.47;1.02;;;26.20;97.00;;;;;;4829319;29;20053;-86
2023/08/04 10:53:03;;;;;;;2.80;1.30;;;26.40;98.30;;;;;;4834320;29;20810;-85
2023/08/04 10:55:32;;;;;;;2.22;0.80;;;26.50;98.30;;;;;;4833310;29;20097;-84
2023/08/04 10:58:00;;;;;;;2.33;1.27;;;26.50;97.40;;;;;;4824790;29;20149;-87
2023/08/04 11:00:27;;;;;;;1.88;0.90;;;26.50;97.40;;;;;;4823607;29;20049;-81
2023/08/04 11:02:54;;;;;;;3.17;1.20;;;26.60;98.40;;;;;;4833956;29;20539;-86
2023/08/04 11:05:23;;;;;;;2.05;1.48;;;26.60;97.60;;;;;;4828438;29;20056;-84
2023/08/04 11:07:51;;;;;;;1.77;1.17;;;26.50;97.00;;;;;;4824720;29;20513;-84
2023/08/04 11:10:18;;;;;;;2.28;1.33;;;26.60;97.90;;;;;;4812656;29;20053;-86
2023/08/04 11:12:46;;;;;;;2.58;1.70;;;26.60;97.30;;;;;;4817654;29;20456;-86
2023/08/04 11:15:13;;;;;;;4.07;1.35;;;26.70;97.90;;;;;;4827547;29;20110;-87
2023/08/04 11:17:42;;;;;;;2.78;1.02;;;26.80;98.20;;;;;;4839803;29;20059;-86
2023/08/04 11:20:14;;;;;;;1.50;0.90;;;26.80;97.60;;;;;;4840801;29;20057;-82
2023/08/04 11:22:46;;;;;;;1.58;0.98;;;27.00;98.30;;;;;;4854114;29;20566;-83
2023/08/04 11:25:14;;;;;;;2.58;1.30;;;27.10;98.00;;;;;;4829303;29;20054;-86
2023/08/04 11:27:41;;;;;;;2.30;1.55;;;27.10;96.90;;;;;;4834303;29;20049;-86
2023/08/04 11:30:12;;;;;;;2.55;1.40;;;26.90;96.00;;;;;;4828430;29;21017;-85
2023/08/04 11:32:39;;;;;;;1.40;1.30;;;26.90;98.00;;;;;;4817995;29;20191;-82
2023/08/04 11:35:07;;;;;;;2.85;1.48;;;26.90;98.90;;;;;;4823762;29;20500;-83
2023/08/04 11:37:34;;;;;;;3.45;2.20;;;27.00;98.30;;;;;;4815686;29;20116;-87
2023/08/04 11:40:01;;;;;;;3.58;2.30;;;27.10;97.80;;;;;;4817173;29;20514;-86
2023/08/04 11:42:28;;;;;;;3.67;2.30;;;27.20;96.50;;;;;;4839595;29;20057;-86
2023/08/04 11:44:55;;;;;;;1.80;1.33;;;27.20;94.70;;;;;;4812272;29;20049;-86
2023/08/04 11:47:25;;;;;;;3.25;1.88;;;27.30;95.30;;;;;;4811002;29;20055;-86
2023/08/04 11:49:53;;;;;;;2.00;1.60;;;27.40;96.20;;;;;;4813386;29;20102;-82
2023/08/04 11:52:20;;;;;;;2.28;1.67;;;27.40;96.50;;;;;;4810873;29;20057;-81
2023/08/04 11:54:56;;;;;;;2.65;1.98;;;27.30;95.30;;;;;;4841314;29;20098;-85
2023/08/04 11:57:25;;;;;;;1.98;1.25;;;27.00;96.20;;;;;;4805892;29;20058;-86
2023/08/04 11:59:53;;;;;;;2.30;1.20;;;26.80;96.80;;;;;;4847327;29;20052;-85
2023/08/04 12:02:21;;;;;;;1.85;1.30;;;26.60;97.80;;;;;;4819471;29;20053;-86
2023/08/04 12:05:10;;;;;;;2.55;1.20;;;26.50;99.20;;;;;;4807959;29;20052;-85
2023/08/04 12:07:38;;;;;;;2.92;1.33;;;26.40;98.90;;;;;;4830474;29;20069;-85
2023/08/04 12:10:14;;;;;;;2.50;1.55;;;26.40;99.20;;;;;;4827893;29;20137;-85
2023/08/04 12:12:41;;;;;;;2.40;1.58;;;26.50;99.70;;;;;;4829073;29;20191;-85
2023/08/04 12:15:09;;;;;;;2.22;1.40;;;26.60;98.10;;;;;;4827770;29;20049;-83
2023/08/04 12:17:41;;;;;;;2.63;1.25;;;26.80;98.00;;;;;;4833960;29;22091;-79
2023/08/04 12:20:10;;;;;;;2.63;1.38;;;26.90;97.50;;;;;;4840511;29;20052;-83
2023/08/04 12:22:40;;;;;;;3.38;1.50;;;27.00;99.40;;;;;;4810577;29;20687;-84
2023/08/04 12:25:08;;;;;;;3.45;1.45;;;26.80;98.50;;;;;;4837072;29;20731;-83
2023/08/04 12:27:36;;;;;;;2.25;1.58;;;26.80;99.20;;;;;;4818234;29;20057;-81
2023/08/04 12:30:03;;;;;;;1.83;1.00;;;26.60;98.90;;;;;;4831728;29;20545;-81
2023/08/04 12:32:31;;;;;;;2.15;1.30;;;26.60;99.20;;;;;;4825764;29;20425;-85
2023/08/04 12:34:58;;;;;;;2.80;1.38;;;26.60;98.90;;;;;;4818001;29;20061;-85
2023/08/04 12:37:28;;;;;;;2.30;1.33;;;26.70;99.90;;;;;;4811822;29;20053;-85
2023/08/04 12:39:55;;;;;;;2.67;1.45;;;26.90;98.80;;;;;;4826755;29;20053;-85
2023/08/04 12:42:24;;;;;;;1.45;1.23;;;27.10;99.00;;;;;;4830967;29;20089;-84
2023/08/04 12:44:51;;;;;;;1.65;1.38;;;27.20;99.00;;;;;;4829473;29;20049;-82
2023/08/04 12:47:18;;;;;;;2.53;1.65;;;27.20;97.50;;;;;;4823585;29;20399;-83
2023/08/04 12:49:46;;;;;;;3.50;1.35;;;27.00;97.00;;;;;;4830339;29;20106;-82
2023/08/04 12:52:13;;;;;;;3.55;1.80;;;27.10;97.70;;;;;;4829758;29;20052;-81
2023/08/04 12:54:40;;;;;;;2.92;1.80;;;27.00;97.80;;;;;;4823655;29;20507;-82
2023/08/04 12:57:09;;;;;;;2.63;1.90;;;27.10;97.80;;;;;;4833640;29;20187;-81
2023/08/04 12:59:37;;;;;;;2.75;1.83;;;27.10;97.40;;;;;;4820417;29;20053;-81
2023/08/04 13:02:05;;;;;;;4.63;1.75;;;27.30;96.90;;;;;;4838089;29;20063;-83
2023/08/04 13:04:33;;;;;;;3.13;1.90;;;27.30;97.00;;;;;;4818754;29;20702;-83